Data for 04/03/2016

Time Sea-Level Adjusted Pressure Absolute Pressure Temperature Relative Humidity Dew Point   
(mb) (inHg) (mb) (inHg) (C) (F) (%) (C) (F)
00:05 1017 30.03 847 25.01 9.4 48.8 35 -5.2 22.6
00:10 1017 30.03 847 25.01 9.5 49.1 36 -4.7 23.5
00:15 1017 30.03 847 25.01 9.3 48.7 36 -5.1 22.9
00:20 1017 30.03 847 25.01 9.4 48.8 36 -5 23
00:25 1017 30.03 847 25.01 9.3 48.8 36 -5 23
00:30 1017 30.03 847 25.01 9.3 48.8 36 -4.8 23.3
00:35 1017 30.03 847 25.01 9.1 48.4 38 -4.4 24
00:40 1017 30.03 847 25.01 8.9 48 37 -4.9 23.1
00:45 1017 30.03 846 24.98 9.2 48.5 35 -5.5 22.1
00:50 1017 30.03 846 24.98 9.5 49 35 -5.3 22.4
00:55 1017 30.03 846 24.98 9.3 48.8 36 -5.1 22.8
01:00 1017 30.03 846 24.98 9.1 48.5 37 -4.8 23.4
01:05 1017 30.03 846 24.98 8.8 47.8 39 -4.5 23.9
01:10 1017 30.03 846 24.98 8.5 47.2 39 -4.5 23.9
01:15 1017 30.03 846 24.98 8.2 46.8 41 -4.1 24.7
01:20 1017 30.03 846 24.98 8 46.4 43 -3.8 25.1
01:25 1017 30.03 846 24.98 7.8 46.1 42 -4.2 24.4
01:30 1017 30.03 846 24.98 7.8 46.1 42 -4.3 24.3
01:35 1017 30.03 846 24.98 7.9 46.3 41 -4.6 23.7
01:40 1017 30.03 847 25.01 8.2 46.7 39 -4.8 23.3
01:45 1017 30.03 847 25.01 8.5 47.4 38 -4.9 23.1
01:50 1017 30.03 847 25.01 8.8 47.8 37 -5 23
01:55 1017 30.03 847 25.01 9 48.2 36 -5.3 22.5
02:00 1018 30.06 847 25.01 9.2 48.5 36 -4.9 23.2
02:05 1018 30.06 847 25.01 9.1 48.3 37 -4.9 23.2
02:10 1018 30.06 847 25.01 9.1 48.4 37 -5 23.1
02:15 1018 30.06 847 25.01 9.2 48.6 36 -5 23.1
02:20 1018 30.06 847 25.01 9.2 48.6 36 -4.9 23.1
02:25 1018 30.06 847 25.01 9.2 48.6 36 -5 23.1
02:30 1017 30.03 847 25.01 9.3 48.8 37 -4.7 23.6
02:35 1017 30.03 847 25.01 9 48.3 39 -4.2 24.4
02:40 1017 30.03 847 25.01 8.7 47.7 39 -4.3 24.3
02:45 1017 30.03 847 25.01 8.6 47.4 40 -4.3 24.2
02:50 1017 30.03 847 25.01 8.5 47.4 40 -4.4 24
02:55 1017 30.03 847 25.01 8.6 47.5 40 -4.4 24.2
03:00 1017 30.03 847 25.01 8.6 47.4 40 -4.4 24.1
03:05 1018 30.06 847 25.01 8.6 47.4 40 -4.3 24.3
03:10 1018 30.06 847 25.01 8.5 47.2 42 -3.8 25.2
03:15 1018 30.06 847 25.01 8.1 46.7 43 -3.7 25.4
03:20 1018 30.06 847 25.01 8 46.3 44 -3.5 25.6
03:25 1018 30.06 847 25.01 7.9 46.2 42 -4.1 24.6
03:30 1018 30.06 847 25.01 8.1 46.6 43 -3.6 25.5
03:35 1018 30.06 847 25.01 8.1 46.5 44 -3.6 25.6
03:40 1018 30.06 847 25.01 7.9 46.3 44 -3.5 25.8
03:45 1018 30.06 847 25.01 7.8 46.1 44 -3.7 25.3
03:50 1018 30.06 847 25.01 7.8 46 44 -3.6 25.5
03:55 1018 30.06 847 25.01 7.7 45.8 44 -3.9 24.9
04:00 1018 30.06 847 25.01 7.8 46.1 41 -4.4 24
04:05 1018 30.06 847 25.01 8.3 46.9 41 -4.2 24.5
04:10 1018 30.06 847 25.01 8.4 47.1 41 -4.2 24.4
04:15 1018 30.06 847 25.01 8.6 47.4 41 -4 24.8
04:20 1018 30.06 847 25.01 8.6 47.4 42 -3.7 25.3
04:25 1018 30.06 848 25.04 8 46.4 44 -3.5 25.7
04:30 1018 30.06 848 25.04 7.5 45.5 45 -3.7 25.3
04:35 1018 30.06 848 25.04 7.7 45.9 44 -3.8 25.2
04:40 1018 30.06 848 25.04 8 46.5 43 -3.7 25.4
04:45 1018 30.06 848 25.04 8.3 47 43 -3.5 25.8
04:50 1018 30.06 848 25.04 8.6 47.4 43 -3.2 26.3
04:55 1019 30.09 848 25.04 8.6 47.4 44 -2.9 26.7
05:00 1018 30.06 848 25.04 8.5 47.2 45 -2.8 26.9
05:05 1019 30.09 848 25.04 8.2 46.7 45 -3 26.5
05:10 1019 30.09 848 25.04 8 46.4 45 -3.1 26.5
05:15 1019 30.09 848 25.04 7.9 46.2 45 -3.3 26.1
05:20 1019 30.09 848 25.04 8.1 46.5 44 -3.3 26
05:25 1019 30.09 848 25.04 8 46.5 45 -3.1 26.3
05:30 1019 30.09 848 25.04 7.8 46 46 -3.1 26.4
05:35 1019 30.09 848 25.04 7.6 45.6 47 -3.1 26.4
05:40 1019 30.09 848 25.04 7.5 45.5 46 -3.2 26.2
05:45 1019 30.09 848 25.04 7.7 45.8 46 -3.2 26.3
05:50 1019 30.09 848 25.04 8 46.3 45 -3.1 26.4
05:55 1019 30.09 848 25.04 8.1 46.5 45 -3 26.6
06:00 1019 30.09 848 25.04 8.2 46.7 46 -2.8 27
06:05 1019 30.09 848 25.04 8.1 46.5 47 -2.6 27.3
06:10 1019 30.09 848 25.04 7.9 46.2 47 -2.8 27
06:15 1019 30.09 848 25.04 7.8 46.1 47 -2.7 27.1
06:20 1019 30.09 848 25.04 7.6 45.7 48 -2.6 27.3
06:25 1019 30.09 848 25.04 7.4 45.3 49 -2.7 27.1
06:30 1019 30.09 849 25.07 7.7 45.9 47 -2.9 26.8
06:35 1019 30.09 849 25.07 8.1 46.5 46 -2.9 26.9
06:40 1019 30.09 849 25.07 8.3 46.9 46 -2.7 27.2
06:45 1019 30.09 849 25.07 8.2 46.8 45 -2.9 26.8
06:50 1019 30.09 849 25.07 8.5 47.3 43 -3.3 26.1
06:55 1020 30.12 849 25.07 8.7 47.6 44 -3 26.6
07:00 1020 30.12 849 25.07 8.8 47.8 44 -3 26.7
07:05 1020 30.12 849 25.07 9.1 48.4 42 -3.1 26.5
07:10 1020 30.12 849 25.07 9.8 49.7 41 -2.6 27.3
07:15 1020 30.12 849 25.07 9.6 49.2 43 -2.3 27.9
07:20 1020 30.12 849 25.07 9.2 48.6 44 -2.5 27.5
07:25 1020 30.12 849 25.07 9.1 48.3 43 -2.7 27.1
07:30 1020 30.12 849 25.07 9.8 49.6 41 -2.7 27.1
07:35 1020 30.12 849 25.07 10.3 50.6 40 -2.6 27.3
07:40 1020 30.12 849 25.07 10.3 50.6 41 -2.3 27.9
07:45 1020 30.12 849 25.07 10.3 50.5 41 -2.5 27.6
07:50 1020 30.12 849 25.07 10.5 50.9 39 -2.7 27.1
07:55 1020 30.12 849 25.07 11.3 52.3 37 -2.8 26.9
08:00 1020 30.12 849 25.07 11.6 52.8 36 -2.9 26.8
08:05 1020 30.12 849 25.07 11.8 53.3 37 -2.4 27.7
08:10 1020 30.12 849 25.07 11.3 52.3 38 -2.6 27.2
08:15 1020 30.12 849 25.07 11.8 53.2 36 -2.8 27
08:20 1020 30.12 849 25.07 11.9 53.4 37 -2.4 27.6
08:25 1020 30.12 849 25.07 12.1 53.8 36 -2.6 27.4
08:30 1020 30.12 849 25.07 12.4 54.4 36 -2.2 28
08:35 1020 30.12 849 25.07 12.4 54.4 36 -2.2 28
08:40 1020 30.12 849 25.07 12.9 55.1 36 -2 28.5
08:45 1020 30.12 849 25.07 12.6 54.7 36 -2.1 28.2
08:50 1020 30.12 849 25.07 12.7 54.9 37 -1.4 29.4
08:55 1020 30.12 849 25.07 12.8 55 36 -1.9 28.5
09:00 1020 30.12 849 25.07 13.6 56.4 34 -2.1 28.2
09:05 1020 30.12 849 25.07 13.8 56.8 34 -1.8 28.7
09:10 1020 30.12 849 25.07 13.4 56.1 33 -2.3 27.8
09:15 1020 30.12 849 25.07 13.5 56.3 33 -2.2 28
09:20 1020 30.12 849 25.07 13.7 56.6 33 -2.1 28.2
09:25 1020 30.12 849 25.07 13.7 56.6 33 -2.3 27.9
09:30 1020 30.12 849 25.07 13.4 56 35 -1.9 28.6
09:35 1020 30.12 849 25.07 13.6 56.5 32 -2.6 27.4
09:40 1020 30.12 849 25.07 14 57.2 32 -2.5 27.5
09:45 1020 30.12 849 25.07 13.8 56.9 33 -2 28.5
09:50 1020 30.12 849 25.07 13.5 56.2 31 -3.1 26.5
09:55 1020 30.12 849 25.07 13.8 56.9 32 -2.4 27.7
10:00 1020 30.12 849 25.07 13.6 56.5 30 -3.5 25.7
10:05 1020 30.12 849 25.07 14.5 58.2 29 -3.1 26.4
10:10 1020 30.12 849 25.07 15 59.1 28 -3 26.5
10:15 1020 30.12 849 25.07 15.6 60 28 -2.8 26.9
10:20 1020 30.12 849 25.07 15.1 59.2 30 -2.2 28.1
10:25 1020 30.12 849 25.07 14 57.2 30 -3.3 26.1
10:30 1020 30.12 849 25.07 14.9 58.8 29 -2.9 26.7
10:35 1020 30.12 849 25.07 15.5 59.9 28 -2.8 26.9
10:40 1020 30.12 849 25.07 15.5 59.8 28 -2.8 27
10:45 1020 30.12 849 25.07 15.3 59.6 28 -3 26.6
10:50 1020 30.12 849 25.07 15.6 60.1 27 -3.2 26.3
10:55 1020 30.12 849 25.07 15.8 60.4 25 -3.9 25.1
11:00 1020 30.12 849 25.07 16 60.7 25 -3.7 25.3
11:05 1020 30.12 849 25.07 15.4 59.8 26 -3.9 25
11:10 1020 30.12 849 25.07 14.5 58.1 28 -3.5 25.7
11:15 1020 30.12 849 25.07 14.5 58.1 28 -3.6 25.6
11:20 1020 30.12 849 25.07 14.9 58.8 26 -4.5 23.9
11:25 1020 30.12 849 25.07 15.9 60.6 24 -4.4 24.1
11:30 1020 30.12 849 25.07 16.2 61.1 24 -4.2 24.4
11:35 1020 30.12 849 25.07 16.1 61 25 -3.8 25.1
11:40 1019 30.09 849 25.07 16.2 61.2 25 -4 24.9
11:45 1019 30.09 849 25.07 16.2 61.2 24 -4.4 24.1
11:50 1019 30.09 849 25.07 16.2 61.2 24 -4.1 24.6
11:55 1019 30.09 849 25.07 16.6 61.9 24 -3.9 24.9
12:00 1019 30.09 849 25.07 16.5 61.7 25 -3.7 25.3
12:05 1019 30.09 849 25.07 16.9 62.4 23 -4.2 24.5
12:10 1019 30.09 849 25.07 16.4 61.4 25 -3.6 25.6
12:15 1019 30.09 848 25.04 16.4 61.6 23 -4.6 23.8
12:20 1019 30.09 848 25.04 16.7 62.1 23 -4.2 24.4
12:25 1019 30.09 848 25.04 16.7 62 24 -4.1 24.6
12:30 1019 30.09 848 25.04 17.2 62.9 23 -4.3 24.3
12:35 1019 30.09 848 25.04 17.2 63 23 -3.7 25.3
12:40 1019 30.09 848 25.04 16.8 62.2 24 -4 24.8
12:45 1019 30.09 848 25.04 16 60.8 25 -3.9 24.9
12:50 1019 30.09 848 25.04 15.7 60.2 27 -3.4 26
12:55 1019 30.09 848 25.04 15.3 59.5 26 -3.8 25.1
13:00 1019 30.09 848 25.04 15.6 60 25 -4.5 23.9
13:05 1019 30.09 848 25.04 16.4 61.6 24 -4.4 24.1
13:10 1019 30.09 848 25.04 16.9 62.5 23 -4.3 24.3
13:15 1019 30.09 848 25.04 16.7 62.1 23 -4.2 24.4
13:20 1019 30.09 848 25.04 16.4 61.6 24 -4.1 24.7
13:25 1019 30.09 848 25.04 16 60.8 25 -4.1 24.7
13:30 1019 30.09 848 25.04 15.8 60.5 25 -4.1 24.6
13:35 1019 30.09 848 25.04 15.6 60.1 25 -4.4 24.1
13:40 1019 30.09 848 25.04 16.2 61.1 24 -4.2 24.4
13:45 1019 30.09 848 25.04 16.1 60.9 24 -4.2 24.4
13:50 1019 30.09 848 25.04 16 60.8 25 -3.9 24.9
13:55 1019 30.09 848 25.04 15.6 60.1 26 -3.9 25
14:00 1019 30.09 848 25.04 15.5 59.8 26 -3.8 25.1
14:05 1019 30.09 848 25.04 15.8 60.4 25 -4.3 24.3
14:10 1019 30.09 848 25.04 16.5 61.6 24 -4.1 24.6
14:15 1019 30.09 848 25.04 16.7 62 23 -4.3 24.2
14:20 1019 30.09 848 25.04 17.5 63.5 24 -2.9 26.8
14:25 1019 30.09 848 25.04 18.1 64.5 22 -3.9 24.9
14:30 1019 30.09 848 25.04 17.2 62.9 22 -4.4 24
14:35 1019 30.09 848 25.04 17.3 63.2 22 -4.4 24.1
14:40 1018 30.06 848 25.04 18.3 65 21 -4.3 24.2
14:45 1018 30.06 848 25.04 18.3 64.9 22 -3.7 25.3
14:50 1018 30.06 848 25.04 17.7 63.9 21 -4.6 23.8
14:55 1018 30.06 848 25.04 17.1 62.9 22 -4.5 23.9
15:00 1018 30.06 848 25.04 16.8 62.3 22 -5.1 22.9
15:05 1018 30.06 848 25.04 17.7 63.8 21 -5.1 22.8
15:10 1018 30.06 847 25.01 18.2 64.8 19 -5.8 21.6
15:15 1018 30.06 847 25.01 18.2 64.8 19 -5.9 21.5
15:20 1018 30.06 847 25.01 18.4 65.2 19 -5.5 22.1
15:25 1018 30.06 847 25.01 18 64.3 19 -5.9 21.4
15:30 1018 30.06 847 25.01 17.8 64 20 -5.6 22
15:35 1018 30.06 847 25.01 17.7 63.9 19 -6.2 20.8
15:40 1018 30.06 847 25.01 18.3 64.9 17 -6.8 19.7
15:45 1018 30.06 847 25.01 18 64.5 18 -6.6 20.1
15:50 1018 30.06 847 25.01 17.8 64.1 17 -7.1 19.1
15:55 1018 30.06 847 25.01 18.5 65.3 17 -6.8 19.8
16:00 1018 30.06 847 25.01 18.6 65.5 17 -7.1 19.2
16:05 1018 30.06 847 25.01 18.2 64.8 18 -6.4 20.5
16:10 1018 30.06 847 25.01 18.4 65.2 16 -7.9 17.8
16:15 1018 30.06 847 25.01 18.2 64.8 17 -7.2 19
16:20 1018 30.06 847 25.01 18.5 65.3 17 -7.2 19
16:25 1018 30.06 847 25.01 18.9 66 16 -7.4 18.6
16:30 1018 30.06 847 25.01 18.7 65.6 16 -7.3 18.9
16:35 1018 30.06 847 25.01 18.1 64.5 17 -7.4 18.7
16:40 1018 30.06 847 25.01 18.4 65.2 16 -7.6 18.2
16:45 1018 30.06 847 25.01 18.6 65.5 16 -7.3 18.9
16:50 1018 30.06 847 25.01 18.3 65 17 -7.1 19.2
16:55 1018 30.06 847 25.01 18 64.5 17 -6.9 19.5
17:00 1018 30.06 847 25.01 18.4 65 17 -6.8 19.8
17:05 1018 30.06 847 25.01 18.4 65.2 17 -7 19.4
17:10 1018 30.06 847 25.01 18.2 64.8 18 -6.7 20
17:15 1018 30.06 847 25.01 17.9 64.2 18 -6.6 20.1
17:20 1018 30.06 847 25.01 17.8 64.1 18 -6.5 20.3
17:25 1018 30.06 847 25.01 17.7 63.8 19 -6.2 20.8
17:30 1018 30.06 847 25.01 17.5 63.6 19 -6.3 20.6
17:35 1018 30.06 847 25.01 17.4 63.4 19 -6.7 20
17:40 1018 30.06 847 25.01 17.4 63.2 19 -6.3 20.6
17:45 1018 30.06 847 25.01 17.3 63.2 19 -6.2 20.9
17:50 1018 30.06 847 25.01 17.3 63.2 20 -6 21.3
17:55 1018 30.06 847 25.01 17.3 63.1 19 -6.6 20.1
18:00 1018 30.06 847 25.01 17.1 62.8 19 -6.6 20.2
18:05 1018 30.06 847 25.01 17 62.6 19 -6.5 20.2
18:10 1018 30.06 847 25.01 16.9 62.4 19 -6.5 20.2
18:15 1018 30.06 847 25.01 16.8 62.3 20 -6.4 20.4
18:20 1018 30.06 847 25.01 16.7 62.1 20 -6.5 20.3
18:25 1018 30.06 847 25.01 16.7 62.1 20 -6.1 21
18:30 1018 30.06 847 25.01 16.6 61.9 20 -6.2 20.8
18:35 1018 30.06 847 25.01 16.5 61.7 21 -5.9 21.3
18:40 1018 30.06 847 25.01 16.3 61.4 21 -5.8 21.5
18:45 1018 30.06 847 25.01 16.1 61 22 -5.7 21.7
18:50 1018 30.06 847 25.01 15.9 60.6 22 -5.6 22
18:55 1018 30.06 847 25.01 15.7 60.2 23 -5.3 22.5
19:00 1018 30.06 847 25.01 15.6 60.1 24 -4.9 23.2
19:05 1018 30.06 847 25.01 15.6 60 23 -5.1 22.7
19:10 1018 30.06 847 25.01 15.5 59.8 23 -5.6 22
19:15 1018 30.06 847 25.01 15.2 59.4 26 -4.3 24.3
19:20 1018 30.06 847 25.01 14.3 57.8 29 -3.4 25.9
19:25 1018 30.06 847 25.01 13.5 56.2 30 -3.6 25.5
19:30 1018 30.06 847 25.01 12.7 54.9 32 -3.5 25.6
19:35 1018 30.06 847 25.01 12.3 54.1 33 -3.6 25.6
19:40 1018 30.06 847 25.01 11.9 53.4 33 -3.7 25.3
19:45 1018 30.06 847 25.01 11.7 53 34 -3.6 25.5
19:50 1018 30.06 848 25.04 11.5 52.6 35 -3.5 25.7
19:55 1018 30.06 848 25.04 11.4 52.4 36 -3.3 26
20:00 1019 30.09 848 25.04 11.2 52.1 36 -3.3 26
20:05 1019 30.09 848 25.04 11 51.9 36 -3.4 25.8
20:10 1019 30.09 848 25.04 10.9 51.6 37 -3.3 26
20:15 1019 30.09 848 25.04 10.6 51 38 -3.1 26.4
20:20 1019 30.09 848 25.04 10.3 50.5 39 -2.9 26.7
20:25 1019 30.09 848 25.04 10.2 50.3 39 -3.1 26.5
20:30 1019 30.09 848 25.04 10.1 50.1 40 -3 26.7
20:35 1019 30.09 848 25.04 10 50 38 -3.6 25.4
20:40 1019 30.09 848 25.04 10.1 50.2 37 -3.8 25.1
20:45 1019 30.09 848 25.04 10.2 50.4 36 -4 24.8
20:50 1019 30.09 848 25.04 10.4 50.6 37 -3.8 25.1
20:55 1019 30.09 848 25.04 10.2 50.3 37 -3.7 25.4
21:00 1019 30.09 848 25.04 10 50 38 -3.7 25.4
21:05 1019 30.09 848 25.04 9.9 49.8 38 -3.7 25.3
21:10 1019 30.09 848 25.04 9.8 49.7 38 -3.7 25.3
21:15 1019 30.09 848 25.04 9.7 49.5 39 -3.6 25.5
21:20 1019 30.09 848 25.04 9.7 49.4 38 -4 24.8
21:25 1019 30.09 848 25.04 9.9 49.7 37 -4.1 24.6
21:30 1019 30.09 848 25.04 9.9 49.8 37 -4.2 24.5
21:35 1019 30.09 848 25.04 9.9 49.7 37 -4 24.8
21:40 1019 30.09 848 25.04 9.7 49.5 38 -3.9 25
21:45 1019 30.09 848 25.04 9.6 49.2 39 -3.8 25.1
21:50 1019 30.09 848 25.04 9.5 49 39 -3.9 25
21:55 1019 30.09 848 25.04 9.4 48.9 39 -4 24.8
22:00 1019 30.09 848 25.04 9.4 48.9 38 -4 24.7
22:05 1019 30.09 848 25.04 9.3 48.8 39 -3.8 25.2
22:10 1019 30.09 848 25.04 9.2 48.5 40 -3.7 25.3
22:15 1019 30.09 848 25.04 9.1 48.3 40 -3.7 25.4
22:20 1019 30.09 848 25.04 9 48.1 41 -3.7 25.3
22:25 1019 30.09 848 25.04 8.9 48.1 39 -4.1 24.6
22:30 1019 30.09 848 25.04 9.1 48.4 39 -4.1 24.6
22:35 1019 30.09 848 25.04 9.3 48.7 38 -4.3 24.3
22:40 1019 30.09 848 25.04 9.5 49 38 -4.2 24.4
22:45 1019 30.09 848 25.04 9.5 49 37 -4.3 24.3
22:50 1019 30.09 848 25.04 9.5 49.1 38 -3.9 24.9
22:55 1019 30.09 849 25.07 9.5 49.1 38 -4.2 24.4
23:00 1019 30.09 849 25.07 9.5 49.1 38 -4.1 24.7
23:05 1019 30.09 849 25.07 9.2 48.6 39 -3.8 25.2
23:10 1019 30.09 849 25.07 9.2 48.5 41 -3.5 25.6
23:15 1019 30.09 849 25.07 9 48.2 41 -3.4 25.8
23:20 1019 30.09 849 25.07 8.6 47.5 43 -3.2 26.2
23:25 1019 30.09 849 25.07 8.1 46.5 45 -3.1 26.4
23:30 1019 30.09 849 25.07 7.7 45.8 46 -3.3 26.1
23:35 1020 30.12 849 25.07 7.6 45.7 46 -3.2 26.2
23:40 1020 30.12 849 25.07 7.7 45.9 45 -3.3 26.1
23:45 1020 30.12 849 25.07 7.7 45.8 47 -3 26.6
23:50 1020 30.12 849 25.07 7.5 45.5 46 -3.3 26.1
23:55 1020 30.12 849 25.07 7.3 45.2 47 -3.2 26.2
24:00 1020 30.12 849 25.07 7.2 45 47 -3.3 26